Indian Island, Maine
Current Conditions -  °F | °C
As of 1:20 PM on Wednesday 28 Jan 2015 (Local Time) from KBGR Reporting Station
Overcast Overcast  
Wind Chill:   Ceiling: 3800
Heat Index: 18°   Visibility: 9mi
Dew Point:   Wind: 17mph
Humidity: 68%   Direction: 330°NNW
Pressure: 29.89"   Gusts: 24mph
Location:  45.0236°N, 68.7394°W
Report Text: KBGR 281820Z 33015G21KT 9SM BKN038 OVC047 M08/M13 A2989 RMK AO2 SNE09 P0000 T10781128
Loading
Personal Weather Stations






























Interactive Weather Map New forecast layout! Learn more

10-Day Weather Forecast

Advertisements
Track Severe Weather on mobile